Willimantic, CT

6:36 AM EST on January 17, 2017 (GMT -0500)
mansfield ave | | Change Station
Active Advisory: Winter Weather Advisory

Elev 253 ft 41.73 °N, 72.23 °W | Updated 10 seconds ago

Mostly Cloudy
Mostly Cloudy
27.5 °F
Feels Like 28 °F
N
0.0
Wind Variable Wind from North

Today
High -- | Low -- °F
--% Chance of Precip.
Yesterday
High -- | Low -- °F
Precip. -- in
Pressure 30.22 in
Visibility 9.0 miles
Clouds Mostly Cloudy 12000 ft
Windchill 28 °F
Dew Point 25 °F
Humidity 93%
Rainfall 0.00 in
Snow Depth Not available.
7:12 AM 4:46 PM
Waning Gibbous, 73% visible
METAR KIJD 171052Z AUTO 05003KT 9SM BKN120 M02/M04 A3022 RMK AO2 SLP234 T10171039
Pressure 30.22 in
Visibility 9.0 miles
Clouds Mostly Cloudy 12000 ft
Windchill 28 °F
Dew Point 25 °F
Humidity 93%
Rainfall 0.00 in
Snow Depth Not available.
7:12 AM 4:46 PM
Waning Gibbous, 73% visible
METAR KIJD 171052Z AUTO 05003KT 9SM BKN120 M02/M04 A3022 RMK AO2 SLP234 T10171039

Get Your Daily Forecast Email!

Thanks for signing up!

Be on the lookout for a verification email in your inbox.

You'll start receiving the daily forecast at 8 AM.

×

10-Day Weather Forecast

Almanac

Astronomy

Jan. 17, 2017 Rise Set
Actual Time
Civil Twilight
Nautical Twilight
Astronomical Twilight
Moon
Length of Visible Light
Length of Day
Tomorrow will be .
, % of the Moon is Illuminated

Today's Extremes

State Highs State Lows

Community

WunderPhotos

Upload Photos

1,962,540 photos uploaded!

WunderBlog® & News

Nearby

Air Quality

  Air Quality AQ Index Pollutant
Not available.

Snow Depth

Station Depth Elevation

Earthquake Activity

City Distance Mag. Time & Date
Minimum magnitude displayed is 2.5.

Coastal Water Temperatures

Place Temperature

Stations

Nearby Weather Stations

Station Location Temp. Windchill Dew Point Humidity Wind Precip. Elev Updated Type
                   

Watches & Warnings

Winter Weather Advisory
Issued: 4:01 AM EST Jan. 17, 2017 – National Weather Service

... Winter Weather Advisory remains in effect from 1 PM this
afternoon to 7 am EST Wednesday...

* locations... Hartford... Tolland... and Windham counties in
northern Connecticut.

* Hazard types... include snow... sleet... and freezing rain.

* Accumulations... up to 1 inch of snow.

* Timing... this afternoon into early Wednesday.

* Impacts... wintry precipitation will likely result in hazardous
travel conditions on untreated roads... especially bridges...
and overpasses. Parking lots and sidewalks will become
slippery as well.

Precautionary/preparedness actions...

A Winter Weather Advisory means that periods of snow... sleet... or
freezing rain will cause travel difficulties. Be prepared for
slippery roads and limited visibilities... and use caution while
driving.